Thunder radar more information blitzortung!


Radar de pluja more information rain snow radar


Visita la nostra xarxa de llocs de meteo:

Template documentation
and downloads

And another site



No particular awareness of the weather is required.    There are no Weather-warnings

Pagina Historial Weather Underground text

Diari Resum Juny 22, 2016 Unitats:  Mètric    Imperial   Tant
« Previous Dia
SegĂźent Dia »
Diari Setmana Mensual Anual Personalitzada
  Maxima: Minima: Media:
Temperatura: -17.8 °C -8.5 °C -3.4 °C
Punt de rosada: -17.8 °C -16.3 °C -13.3 °C
Humitat: Humidity % 25 % 33 %
Wind Speed: 0 km/h 0 km/h 12.9 km/h
RĂ fegues de vent: 0 km/h - -
Vent:- - SW
Pression baro: 0 hPa 34428.8 hPa -
Precipitacions: 0 mm    
Historical Graphs
 
 
Dades de taula per Juny 22, 2016
Temps Temperatura Punt de rosada Pression baro Vent Wind Speed RĂ fegues de vent Humitat Rainfall Rate (Hourly)
-17.8 °C -17.8 °C 0 hPa Calm     Humidity % 0 mm
00:00 -7.1 °C -12.9 °C 34533.8 hPa Calm   5.1 km/h 51 % 0 mm
00:03 -6.2 °C -12.2 °C 34533.8 hPa West 7.6 km/h 7.6 km/h 50 % 0 mm
00:10 -7.2 °C -13 °C 34533.8 hPa Calm   2.6 km/h 51 % 0 mm
00:20 -7.4 °C -13 °C 34496.6 hPa Calm   5.1 km/h 52 % 0 mm
00:30 -7.6 °C -13.2 °C 34533.8 hPa Calm     52 % 0 mm
00:40 -7.8 °C -13.3 °C 34533.8 hPa Calm     52 % 0 mm
00:50 -7.9 °C -13.3 °C 34533.8 hPa Calm     53 % 0 mm
01:00 -7.9 °C -13.3 °C 34496.6 hPa Calm     53 % 0 mm
01:10 -7.9 °C -13.3 °C 34496.6 hPa Calm   5.1 km/h 53 % 0 mm
01:20 -8 °C -13.4 °C 34533.8 hPa SW 2.6 km/h 5.1 km/h 53 % 0 mm
01:30 -8.2 °C -13.6 °C 34533.8 hPa SW 2.6 km/h 5.1 km/h 53 % 0 mm
01:40 -8.3 °C -13.5 °C 34533.8 hPa SW 2.6 km/h 5.1 km/h 54 % 0 mm
01:50 -8.2 °C -13.6 °C 34533.8 hPa SW 2.6 km/h 5.1 km/h 53 % 0 mm
02:10 -8.1 °C -13.3 °C 34533.8 hPa Calm   5.1 km/h 54 % 0 mm
02:20 -8.1 °C -13.3 °C 34533.8 hPa SW 5.1 km/h 7.7 km/h 54 % 0 mm
02:30 -7.8 °C -13 °C 34533.8 hPa SW 2.6 km/h 7.7 km/h 54 % 0 mm
02:40 -7.4 °C -12.7 °C 34533.8 hPa WSW 2.6 km/h 2.6 km/h 54 % 0 mm
02:50 -6.7 °C -12.3 °C 34533.8 hPa WSW 2.6 km/h 2.6 km/h 52 % 0 mm
03:00 -6.3 °C -12.2 °C 34533.8 hPa WSW 2.6 km/h 2.6 km/h 51 % 0 mm
03:10 -6.2 °C -12.1 °C 34533.8 hPa WSW 2.6 km/h 2.6 km/h 51 % 0 mm
03:20 -5.8 °C -12.1 °C 34533.8 hPa WSW 2.6 km/h 2.6 km/h 49 % 0 mm
03:30 -5.6 °C -11.8 °C 34533.8 hPa WSW 2.6 km/h 2.6 km/h 49 % 0 mm
03:40 -5.3 °C -11.7 °C 34533.8 hPa WSW 2.6 km/h 2.6 km/h 48 % 0 mm
03:50 -5.1 °C -11.7 °C 34567.7 hPa WSW 2.6 km/h 2.6 km/h 47 % 0 mm
04:00 -4.9 °C -11.9 °C 34533.8 hPa WSW 7.7 km/h 7.7 km/h 45 % 0 mm
04:10 -4.6 °C -11.8 °C 34533.8 hPa WSW 2.6 km/h 7.7 km/h 44 % 0 mm
04:20 -4.4 °C -11.8 °C 34533.8 hPa SW 2.6 km/h 7.7 km/h 43 % 0 mm
04:30 -4.1 °C -12 °C 34567.7 hPa SW 7.7 km/h 10.3 km/h 41 % 0 mm
04:40 -4 °C -12.1 °C 34567.7 hPa SW 12.9 km/h 15.6 km/h 40 % 0 mm
04:50 -3.8 °C -12.1 °C 34567.7 hPa SW 12.9 km/h 12.9 km/h 39 % 0 mm
05:00 -3.7 °C -12.2 °C 34567.7 hPa SW 12.9 km/h 12.9 km/h 38 % 0 mm
05:10 -3.5 °C -12.1 °C 34567.7 hPa SW 7.7 km/h 15.6 km/h 38 % 0 mm
05:20 -3.2 °C -11.8 °C 34533.8 hPa SW 7.7 km/h 12.9 km/h 38 % 0 mm
05:30 -2.8 °C -11.4 °C 34533.8 hPa WSW 7.7 km/h 10.3 km/h 38 % 0 mm
05:40 -2.7 °C -12.1 °C 34533.8 hPa WSW 7.7 km/h 18.2 km/h 35 % 0 mm
05:50 -2.6 °C -11.9 °C 34533.8 hPa WSW 12.9 km/h 18.2 km/h 35 % 0 mm
06:00 -2.1 °C -11.8 °C 34533.8 hPa WSW 12.9 km/h 18.2 km/h 34 % 0 mm
06:10 -2.1 °C -12 °C 34533.8 hPa SW 12.9 km/h 18.2 km/h 33 % 0 mm
06:20 -1.7 °C -11.7 °C 34533.8 hPa SSW 7.7 km/h 7.7 km/h 33 % 0 mm
06:30 -1.6 °C -12.1 °C 34567.7 hPa South 7.7 km/h 7.7 km/h 31 % 0 mm
06:40 -1.7 °C -12.4 °C 34567.7 hPa SE 7.7 km/h 7.7 km/h 30 % 0 mm
06:50 -1.4 °C -12.2 °C 34533.8 hPa ESE 7.7 km/h 7.7 km/h 30 % 0 mm
07:00 -1.2 °C -11.8 °C 34533.8 hPa SE 5.1 km/h 15.6 km/h 31 % 0 mm
07:10 -1.5 °C -11.2 °C 34533.8 hPa SSW 5.1 km/h 10.3 km/h 34 % 0 mm
07:20 -1.4 °C -10.7 °C 34533.8 hPa SW 12.9 km/h 15.6 km/h 36 % 0 mm
07:30 -1.1 °C -10.6 °C 34533.8 hPa SW 12.9 km/h 12.9 km/h 35 % 0 mm
07:40 -0.7 °C -10.3 °C 34533.8 hPa SSW 2.6 km/h 20.8 km/h 35 % 0 mm
07:50 -1.1 °C -10.9 °C 34533.8 hPa SSW 18.2 km/h 20.8 km/h 34 % 0 mm
07:55 -1 °C -11 °C 34533.8 hPa SW 18.2 km/h 18.2 km/h 33 % 0 mm
12:58 -1.1 °C -11.1 °C 34533.8 hPa West 15 km/h 17.4 km/h 33 % 0 mm
13:03 -1.2 °C -11 °C 34533.8 hPa West 23.8 km/h 23.8 km/h 34 % 0 mm
13:08 -1.1 °C -11.1 °C 34533.8 hPa SW 17.9 km/h 17.9 km/h 33 % 0 mm
13:13 -1.3 °C -11 °C 34533.8 hPa SSW 32.8 km/h 32.8 km/h 34 % 0 mm
13:18 -1.2 °C -11 °C 34533.8 hPa SW 23.8 km/h 23.8 km/h 34 % 0 mm
13:23 -1.2 °C -11 °C 34533.8 hPa WSW 20.9 km/h 20.9 km/h 34 % 0 mm
13:28 -1.1 °C -11.2 °C 34533.8 hPa WSW 23.8 km/h 23.8 km/h 33 % 0 mm
13:33 -1.1 °C -11.4 °C 34533.8 hPa WSW 20.9 km/h 20.9 km/h 32 % 0 mm
13:38 -0.8 °C -11.2 °C 34533.8 hPa SSW 20.9 km/h 20.9 km/h 32 % 0 mm
13:43 -0.8 °C -11.2 °C 34533.8 hPa WSW 20.9 km/h 20.9 km/h 32 % 0 mm
13:48 -0.9 °C -11.2 °C 34533.8 hPa WSW 23.8 km/h 23.8 km/h 32 % 0 mm
13:53 -0.9 °C -11.4 °C 34533.8 hPa SSW 32.8 km/h 32.8 km/h 31 % 0 mm
13:58 -0.9 °C -11.5 °C 34533.8 hPa WSW 23.8 km/h 23.8 km/h 31 % 0 mm
14:03 -0.7 °C -11.3 °C 34533.8 hPa SW 23.8 km/h 23.8 km/h 31 % 0 mm
14:08 -0.7 °C -11.3 °C 34533.8 hPa WSW 17.9 km/h 17.9 km/h 31 % 0 mm
14:13 -0.8 °C -11.6 °C 34567.7 hPa WSW 23.8 km/h 23.8 km/h 30 % 0 mm
14:18 -0.7 °C -11.6 °C 34567.7 hPa SSW 29.8 km/h 29.8 km/h 30 % 0 mm
14:23 -0.8 °C -11.6 °C 34567.7 hPa SW 26.9 km/h 26.9 km/h 30 % 0 mm
14:28 -0.8 °C -11.7 °C 34533.8 hPa SW 15 km/h 15.6 km/h 30 % 0 mm
14:33 -0.6 °C -11.4 °C 34533.8 hPa SW 23.8 km/h 23.8 km/h 30 % 0 mm
14:38 -0.4 °C -11.6 °C 34533.8 hPa South 20.9 km/h 20.9 km/h 29 % 0 mm
14:43 -0.4 °C -11.6 °C 34533.8 hPa West 15 km/h 15 km/h 29 % 0 mm
14:48 -0.2 °C -11.7 °C 34533.8 hPa SSW 15 km/h 15 km/h 28 % 0 mm
14:53 0 °C -11.8 °C 34533.8 hPa South 20.9 km/h 20.9 km/h 27 % 0 mm
14:58 -0.1 °C -11.6 °C 34533.8 hPa SW 20.9 km/h 20.9 km/h 28 % 0 mm
15:03 -0.1 °C -11.6 °C 34533.8 hPa SW 38.8 km/h 38.8 km/h 28 % 0 mm
15:08 0 °C -11.8 °C 34533.8 hPa SW 18.3 km/h 18.3 km/h 27 % 0 mm
15:13 0.2 °C -11.7 °C 34533.8 hPa SW 17.9 km/h 17.9 km/h 27 % 0 mm
15:18 0.3 °C -11.9 °C 34533.8 hPa SSE 15 km/h 15 km/h 26 % 0 mm
15:23 0.2 °C -12 °C 34533.8 hPa SSW 15 km/h 15 km/h 26 % 0 mm
15:28 0.3 °C -11.9 °C 34533.8 hPa SSW 19.2 km/h 19.2 km/h 26 % 0 mm
15:33 0.3 °C -11.9 °C 34533.8 hPa SW 15 km/h 15 km/h 26 % 0 mm
15:38 0.2 °C -12.3 °C 34533.8 hPa SSW 26.9 km/h 26.9 km/h 25 % 0 mm
15:43 0.3 °C -11.9 °C 34533.8 hPa West 17.9 km/h 17.9 km/h 26 % 0 mm
15:48 0.4 °C -11.8 °C 34533.8 hPa West 17.9 km/h 17.9 km/h 26 % 0 mm
15:53 0.6 °C -11.7 °C 34533.8 hPa West 20.9 km/h 20.9 km/h 26 % 0 mm
15:58 0.3 °C -11.9 °C 34533.8 hPa WSW 33.2 km/h 33.2 km/h 26 % 0 mm
16:03 0.1 °C -12.1 °C 34533.8 hPa South 23.8 km/h 23.8 km/h 26 % 0 mm
16:08 0.1 °C -12.1 °C 34533.8 hPa SW 29.8 km/h 29.8 km/h 26 % 0 mm
16:13 0.2 °C -12.1 °C 34496.6 hPa SW 23.8 km/h 23.8 km/h 26 % 0 mm
16:18 0 °C -12.2 °C 34496.6 hPa SW 20.9 km/h 20.9 km/h 26 % 0 mm
16:23 0.1 °C -12.1 °C 34496.6 hPa SW 29.8 km/h 29.8 km/h 26 % 0 mm
16:28 0.1 °C -12.1 °C 34496.6 hPa West 20.9 km/h 20.9 km/h 26 % 0 mm
16:33 -0.2 °C -12.3 °C 34496.6 hPa SSW 23.8 km/h 23.8 km/h 26 % 0 mm
16:38 0.2 °C -12 °C 34496.6 hPa SW 11.9 km/h 11.9 km/h 26 % 0 mm
16:43 0.2 °C -12.3 °C 34496.6 hPa WSW 29.8 km/h 29.8 km/h 25 % 0 mm
16:48 0.1 °C -12.4 °C 34496.6 hPa WSW 23.8 km/h 23.8 km/h 25 % 0 mm
16:53 0 °C -12.5 °C 34496.6 hPa WSW 23.8 km/h 23.8 km/h 25 % 0 mm
16:58 -0.3 °C -12.4 °C 34496.6 hPa SW 26.9 km/h 26.9 km/h 26 % 0 mm
17:04 -0.3 °C -12.4 °C 34496.6 hPa South 32.8 km/h 32.8 km/h 26 % 0 mm
17:14 -0.2 °C -12.3 °C 34496.6 hPa SW 26.9 km/h 26.9 km/h 26 % 0 mm
17:19 -0.3 °C -12.4 °C 34496.6 hPa SW 26.9 km/h 26.9 km/h 26 % 0 mm
17:24 -0.3 °C -12.4 °C 34496.6 hPa SW 26.9 km/h 26.9 km/h 26 % 0 mm
17:29 -0.4 °C -12.5 °C 34496.6 hPa WSW 19.6 km/h 19.6 km/h 26 % 0 mm
17:34 -0.4 °C -12.5 °C 34496.6 hPa SSW 20.9 km/h 20.9 km/h 26 % 0 mm
17:39 -0.4 °C -12.5 °C 34496.6 hPa SW 27.7 km/h 27.7 km/h 26 % 0 mm
17:44 -0.4 °C -12.6 °C 34496.6 hPa SW 20.9 km/h 20.9 km/h 26 % 0 mm
17:49 -0.4 °C -12.6 °C 34496.6 hPa SSW 23.8 km/h 23.8 km/h 26 % 0 mm
17:54 -0.4 °C -12.6 °C 34496.6 hPa SW 11.9 km/h 11.9 km/h 26 % 0 mm
17:59 -0.5 °C -12.6 °C 34462.7 hPa SW 23.8 km/h 23.8 km/h 26 % 0 mm
18:04 -0.6 °C -12.3 °C 34462.7 hPa SW 23.8 km/h 23.8 km/h 27 % 0 mm
18:09 -0.7 °C -12.4 °C 34462.7 hPa West 23.8 km/h 23.8 km/h 27 % 0 mm
18:14 -0.8 °C -12.6 °C 34462.7 hPa SW 26.4 km/h 26.4 km/h 27 % 0 mm
18:19 -0.9 °C -12.7 °C 34462.7 hPa SSW 15 km/h 16.1 km/h 27 % 0 mm
18:24 -0.9 °C -12.7 °C 34462.7 hPa SSW 20.9 km/h 20.9 km/h 27 % 0 mm
18:29 -0.8 °C -12.6 °C 34462.7 hPa SSW 17.9 km/h 17.9 km/h 27 % 0 mm
18:34 -1.1 °C -13.1 °C 34462.7 hPa SW 15 km/h 15 km/h 26 % 0 mm
18:39 -1.3 °C -13.2 °C 34462.7 hPa WSW 23.8 km/h 23.8 km/h 26 % 0 mm
18:44 -1.4 °C -13.3 °C 34462.7 hPa SW 20.9 km/h 20.9 km/h 26 % 0 mm
18:49 -1.5 °C -13.4 °C 34462.7 hPa WSW 20.9 km/h 20.9 km/h 26 % 0 mm
18:54 -1.6 °C -13.2 °C 34462.7 hPa SW 20.9 km/h 20.9 km/h 27 % 0 mm
18:59 -1.8 °C -13.1 °C 34462.7 hPa SW 15 km/h 15 km/h 28 % 0 mm
19:04 -1.9 °C -13.2 °C 34462.7 hPa SW 15 km/h 15 km/h 28 % 0 mm
19:09 -1.9 °C -13.2 °C 34462.7 hPa SW 15 km/h 15 km/h 28 % 0 mm
19:14 -2.1 °C -13.3 °C 34462.7 hPa SW 15 km/h 15 km/h 28 % 0 mm
19:19 -2.1 °C -13.4 °C 34462.7 hPa SW 15 km/h 15 km/h 28 % 0 mm
19:24 -2.3 °C -13.5 °C 34462.7 hPa SW 15 km/h 15 km/h 28 % 0 mm
19:29 -2.4 °C -13.7 °C 34462.7 hPa SW 15 km/h 15 km/h 28 % 0 mm
19:34 -2.6 °C -13.7 °C 34462.7 hPa SW 15 km/h 15 km/h 28 % 0 mm
19:39 -2.6 °C -13.5 °C 34462.7 hPa SW 15 km/h 15 km/h 29 % 0 mm
19:44 -2.7 °C -13.6 °C 34428.8 hPa SW 15 km/h 15 km/h 29 % 0 mm
19:49 -2.8 °C -13.9 °C 34428.8 hPa SW 15 km/h 15 km/h 28 % 0 mm
19:59 -2.9 °C -13.8 °C 34462.7 hPa SW 15 km/h 15 km/h 29 % 0 mm
20:04 -2.9 °C -13.8 °C 34462.7 hPa SW 15 km/h 15 km/h 29 % 0 mm
20:09 -3.1 °C -13.9 °C 34462.7 hPa SW 15 km/h 15 km/h 29 % 0 mm
20:14 -3.1 °C -13.9 °C 34462.7 hPa SW 15 km/h 15 km/h 29 % 0 mm
20:19 -3.1 °C -13.9 °C 34462.7 hPa SW 15 km/h 15 km/h 29 % 0 mm
20:24 -3.2 °C -14 °C 34462.7 hPa SW 15 km/h 15 km/h 29 % 0 mm
20:29 -3.3 °C -14.1 °C 34462.7 hPa SW 15 km/h 15 km/h 29 % 0 mm
20:30 -6.6 °C -16.2 °C 34533.8 hPa WSW 2.6 km/h 5.1 km/h 32 % 0 mm
20:34 -3.4 °C -14.2 °C 34462.7 hPa SW 15 km/h 15 km/h 29 % 0 mm
20:39 -3.4 °C -14.2 °C 34462.7 hPa SW 15 km/h 15 km/h 29 % 0 mm
20:40 -6.6 °C -16.2 °C 34533.8 hPa WSW 2.6 km/h 5.1 km/h 32 % 0 mm
20:44 -3.6 °C -14.3 °C 34462.7 hPa SW 15 km/h 15 km/h 29 % 0 mm
20:49 -3.6 °C -14.3 °C 34462.7 hPa SW 15 km/h 15 km/h 29 % 0 mm
20:50 -6.7 °C -16.1 °C 34533.8 hPa Calm   5.1 km/h 33 % 0 mm
20:54 -3.7 °C -14.4 °C 34462.7 hPa SW 15 km/h 15 km/h 29 % 0 mm
20:59 -3.8 °C -14.6 °C 34462.7 hPa SW 15 km/h 15 km/h 29 % 0 mm
21:00 -6.8 °C -16.1 °C 34496.6 hPa Calm   5.1 km/h 33 % 0 mm
21:04 -3.9 °C -14.6 °C 34462.7 hPa SW 15 km/h 15 km/h 29 % 0 mm
21:05 -6.8 °C -16.2 °C 34496.6 hPa Calm     33 % 0 mm
21:14 -4.1 °C -14.5 °C 34496.6 hPa SW 15 km/h 15 km/h 30 % 0 mm
21:15 -6.9 °C -16 °C 34533.8 hPa Calm   2.6 km/h 34 % 0 mm
21:19 -4.2 °C -14.6 °C 34496.6 hPa SW 15 km/h 15 km/h 30 % 0 mm
21:24 -4.3 °C -14.7 °C 34496.6 hPa SW 15 km/h 15 km/h 30 % 0 mm
21:25 -6.9 °C -16 °C 34533.8 hPa Calm     34 % 0 mm
21:29 -4.3 °C -14.7 °C 34496.6 hPa SW 15 km/h 15 km/h 30 % 0 mm
21:34 -4.4 °C -15.1 °C 34496.6 hPa SW 15 km/h 15 km/h 29 % 0 mm
21:35 -7 °C -15.8 °C 34533.8 hPa Calm     35 % 0 mm
21:39 -4.5 °C -15.1 °C 34496.6 hPa SW 15 km/h 15 km/h 29 % 0 mm
21:44 -4.6 °C -15.2 °C 34496.6 hPa SW 15 km/h 15 km/h 29 % 0 mm
21:45 -7.1 °C -15.9 °C 34533.8 hPa Calm   2.6 km/h 35 % 0 mm
21:49 -4.7 °C -15.3 °C 34496.6 hPa SW 15 km/h 15 km/h 29 % 0 mm
21:54 -4.7 °C -15.3 °C 34496.6 hPa SW 15 km/h 15 km/h 29 % 0 mm
21:55 -7.3 °C -15.8 °C 34533.8 hPa ENE 2.6 km/h 5.1 km/h 36 % 0 mm
21:59 -4.8 °C -15.4 °C 34496.6 hPa WSW 10.3 km/h 10.3 km/h 29 % 0 mm
22:04 -4.8 °C -15.4 °C 34496.6 hPa SSW 15 km/h 15 km/h 29 % 0 mm
22:05 -7.4 °C -16.2 °C 34533.8 hPa ENE 2.6 km/h 5.1 km/h 35 % 0 mm
22:09 -4.9 °C -15.4 °C 34496.6 hPa SSW 9 km/h 9 km/h 29 % 0 mm
22:14 -4.9 °C -15.5 °C 34496.6 hPa SW 9.3 km/h 12.2 km/h 29 % 0 mm
22:15 -7.8 °C -16.3 °C 34533.8 hPa SW 2.6 km/h 5.1 km/h 36 % 0 mm
22:19 -5 °C -15.6 °C 34496.6 hPa SW 9.3 km/h 12.2 km/h 29 % 0 mm
22:24 -5.1 °C -15.4 °C 34496.6 hPa SW 9.3 km/h 12.2 km/h 30 % 0 mm
22:25 -7.8 °C -16.1 °C 34533.8 hPa WSW 2.6 km/h 5.1 km/h 37 % 0 mm
22:29 -5.2 °C -15.4 °C 34533.8 hPa SW 9 km/h 9 km/h 30 % 0 mm
22:34 -5.2 °C -15.4 °C 34533.8 hPa SW 3.7 km/h 3.7 km/h 30 % 0 mm
22:35 -7.8 °C -15.9 °C 34533.8 hPa Calm   5.1 km/h 38 % 0 mm
22:39 -5.2 °C -15.5 °C 34533.8 hPa SW 3.7 km/h 3.7 km/h 30 % 0 mm
22:44 -5.3 °C -15.5 °C 34533.8 hPa WNW 8 km/h 8 km/h 30 % 0 mm
22:45 -7.8 °C -15.7 °C 34496.6 hPa Calm     39 % 0 mm
22:49 -5.3 °C -15.5 °C 34533.8 hPa SSW 6 km/h 6 km/h 30 % 0 mm
22:54 -5.3 °C -15.6 °C 34533.8 hPa WSW 3.1 km/h 3.7 km/h 30 % 0 mm
22:55 -7.9 °C -15.6 °C 34496.6 hPa Calm   2.6 km/h 40 % 0 mm
22:59 -5.4 °C -15.6 °C 34533.8 hPa West 3.7 km/h 3.7 km/h 30 % 0 mm
23:04 -5.4 °C -15.7 °C 34533.8 hPa SW 6 km/h 6 km/h 30 % 0 mm
23:05 -8.2 °C -15.6 °C 34496.6 hPa WSW 2.6 km/h 5.1 km/h 41 % 0 mm
23:09 -5.4 °C -15.7 °C 34533.8 hPa WSW 8 km/h 8 km/h 30 % 0 mm
23:14 -5.4 °C -15.7 °C 34533.8 hPa WSW 6 km/h 6 km/h 30 % 0 mm
23:15 -8.4 °C -15.7 °C 34496.6 hPa WSW 2.6 km/h 5.1 km/h 42 % 0 mm
23:19 -5.5 °C -15.7 °C 34533.8 hPa SW 6 km/h 6 km/h 30 % 0 mm
23:24 -5.6 °C -15.8 °C 34533.8 hPa WSW 4.2 km/h 4.2 km/h 30 % 0 mm
23:25 -8.5 °C -15 °C 34496.6 hPa Calm   5.1 km/h 46 % 0 mm
23:29 -5.6 °C -15.8 °C 34533.8 hPa WSW 9 km/h 9 km/h 30 % 0 mm
23:34 -5.6 °C -15.8 °C 34533.8 hPa WSW 6 km/h 6.3 km/h 30 % 0 mm
23:35 -8.3 °C -14.8 °C 34533.8 hPa NW 5.1 km/h 5.1 km/h 46 % 0 mm
23:40 -5.7 °C -15.9 °C 34533.8 hPa WSW 2.6 km/h 5.1 km/h 30 % 0 mm
23:45 -5.7 °C -15.9 °C 34533.8 hPa WNW 6 km/h 6 km/h 30 % 0 mm
23:50 -5.8 °C -15.9 °C 34533.8 hPa West 6 km/h 6 km/h 30 % 0 mm
23:55 -5.8 °C -16 °C 34533.8 hPa West 6.8 km/h 6.8 km/h 30 % 0 mm
Meteo Sesrovires
Elogis d' Weather Underground - 2 mb

Guio original per  Jim McMurry - jmcmurry@mwt.net Adaptat per a la plantilla per  Wim van der Kuil - Leuven-Template.eu

Trobareu la nostra informacio del temps tambe a:

Weather Underground

AWEKAS